createdAt,value
2018-01-03T00:00:03.042Z,94.20
2018-01-03T00:02:30.498Z,94.20
2018-01-03T00:04:57.904Z,94.20
2018-01-03T00:07:26.168Z,94.20
2018-01-03T00:09:53.700Z,94.20
2018-01-03T00:12:21.130Z,94.20
2018-01-03T00:14:48.645Z,94.20
2018-01-03T00:17:16.098Z,94.20
2018-01-03T00:19:43.504Z,94.20
2018-01-03T00:22:10.936Z,94.20
2018-01-03T00:24:39.130Z,94.60
2018-01-03T00:27:06.624Z,94.30
2018-01-03T00:29:34.185Z,94.30
2018-01-03T00:32:01.635Z,94.30
2018-01-03T00:34:29.088Z,94.30
2018-01-03T00:36:56.552Z,94.60
2018-01-03T00:39:24.004Z,94.30
2018-01-03T00:41:51.432Z,94.30
2018-01-03T00:44:18.920Z,94.30
2018-01-03T00:46:46.349Z,94.40
2018-01-03T00:49:13.796Z,94.40
2018-01-03T00:51:42.004Z,94.40
2018-01-03T00:54:09.436Z,94.40
2018-01-03T00:56:36.920Z,94.40
2018-01-03T00:59:04.380Z,94.40
2018-01-03T01:01:31.812Z,94.50
2018-01-03T01:03:59.244Z,94.50
2018-01-03T01:06:27.475Z,94.50
2018-01-03T01:08:55.081Z,94.50
2018-01-03T01:11:23.276Z,94.60
2018-01-03T01:13:50.766Z,94.50
2018-01-03T01:16:18.192Z,94.50
2018-01-03T01:18:45.672Z,94.60
2018-01-03T01:21:13.136Z,94.60
2018-01-03T01:23:40.564Z,94.60
2018-01-03T01:26:08.046Z,94.60
2018-01-03T01:28:35.505Z,94.60
2018-01-03T01:31:02.937Z,94.70
2018-01-03T01:33:30.416Z,94.70
2018-01-03T01:35:57.858Z,94.70
2018-01-03T01:38:25.290Z,94.70
2018-01-03T01:40:53.504Z,94.80
2018-01-03T01:43:20.964Z,94.80
2018-01-03T01:45:48.396Z,94.80
2018-01-03T01:48:15.876Z,94.80
2018-01-03T01:50:43.321Z,94.80
2018-01-03T01:53:10.788Z,94.80
2018-01-03T01:55:38.252Z,94.80
2018-01-03T01:58:05.689Z,94.80
2018-01-03T02:00:33.164Z,94.80
2018-01-03T02:03:00.616Z,94.90
2018-01-03T02:05:28.077Z,94.80
2018-01-03T02:07:55.524Z,94.90
2018-01-03T02:10:22.988Z,94.90
2018-01-03T02:12:50.447Z,94.90
2018-01-03T02:15:17.880Z,94.90
2018-01-03T02:17:45.303Z,95.00
2018-01-03T02:20:12.740Z,95.00
2018-01-03T02:22:40.272Z,95.10
2018-01-03T02:25:07.741Z,95.10
2018-01-03T02:27:35.194Z,95.10
2018-01-03T02:30:02.612Z,95.10
2018-01-03T02:32:30.108Z,95.10
2018-01-03T02:34:57.668Z,94.60
2018-01-03T02:37:25.108Z,94.70
2018-01-03T02:39:52.535Z,94.70
2018-01-03T02:42:20.742Z,94.70
2018-01-03T02:44:48.182Z,94.70
2018-01-03T02:47:15.621Z,94.80
2018-01-03T02:49:43.831Z,94.80
2018-01-03T02:52:11.265Z,94.80
2018-01-03T02:54:38.692Z,94.80
2018-01-03T02:57:06.932Z,93.90
2018-01-03T02:59:34.356Z,93.50
2018-01-03T03:02:01.848Z,93.30
2018-01-03T03:04:29.300Z,93.00
2018-01-03T03:06:56.733Z,92.60
2018-01-03T03:09:24.164Z,92.30
2018-01-03T03:11:52.388Z,92.50
2018-01-03T03:14:19.896Z,92.50
2018-01-03T03:16:48.092Z,92.30
2018-01-03T03:19:15.536Z,92.30
2018-01-03T03:21:43.731Z,92.00
2018-01-03T03:24:11.151Z,92.00
2018-01-03T03:26:38.592Z,91.90
2018-01-03T03:29:06.128Z,91.90
2018-01-03T03:31:33.559Z,92.00
2018-01-03T03:34:01.012Z,91.90
2018-01-03T03:36:28.500Z,91.80
2018-01-03T03:38:55.926Z,91.70
2018-01-03T03:41:23.360Z,91.70
2018-01-03T03:43:51.556Z,91.40
2018-01-03T03:46:19.089Z,91.40
2018-01-03T03:48:46.524Z,91.20
2018-01-03T03:51:13.948Z,91.10
2018-01-03T03:53:41.408Z,91.10
2018-01-03T03:56:08.847Z,91.00
2018-01-03T03:58:36.272Z,91.00
2018-01-03T04:01:04.500Z,90.60
2018-01-03T04:03:31.952Z,90.80
2018-01-03T04:05:59.424Z,90.80
2018-01-03T04:08:26.880Z,90.80
2018-01-03T04:10:54.318Z,90.80
2018-01-03T04:13:21.824Z,91.10
2018-01-03T04:15:49.240Z,90.70
2018-01-03T04:18:16.680Z,90.80
2018-01-03T04:20:44.168Z,90.70
2018-01-03T04:23:11.598Z,90.60
2018-01-03T04:25:39.036Z,90.50
2018-01-03T04:28:07.247Z,90.60
2018-01-03T04:30:34.723Z,90.60
2018-01-03T04:33:02.276Z,90.70
2018-01-03T04:35:29.756Z,90.80
2018-01-03T04:37:57.185Z,90.70
2018-01-03T04:40:24.639Z,90.70
2018-01-03T04:42:52.100Z,90.70
2018-01-03T04:45:19.529Z,90.70
2018-01-03T04:47:46.964Z,90.60
2018-01-03T04:50:15.173Z,90.60
2018-01-03T04:52:42.647Z,90.60
2018-01-03T04:55:10.104Z,90.60
2018-01-03T04:57:37.529Z,90.60
2018-01-03T05:00:04.956Z,90.70
2018-01-03T05:02:33.193Z,90.40
2018-01-03T05:05:00.616Z,90.70
2018-01-03T05:07:28.054Z,90.60
2018-01-03T05:09:56.262Z,90.60
2018-01-03T05:12:23.737Z,90.60
2018-01-03T05:14:51.212Z,90.60
2018-01-03T05:17:18.635Z,90.50
2018-01-03T05:19:46.113Z,90.40
2018-01-03T05:22:13.536Z,90.30
2018-01-03T05:24:41.012Z,90.20
2018-01-03T05:27:08.444Z,90.10
2018-01-03T05:29:36.632Z,89.50
2018-01-03T05:32:04.106Z,89.50
2018-01-03T05:34:31.537Z,89.50
2018-01-03T05:36:59.024Z,88.40
2018-01-03T05:39:26.461Z,87.50
2018-01-03T05:41:53.888Z,87.30
2018-01-03T05:44:22.111Z,86.50
2018-01-03T05:46:49.544Z,86.50
2018-01-03T05:49:17.026Z,86.20
2018-01-03T05:51:44.480Z,85.80
2018-01-03T05:54:11.936Z,85.40
2018-01-03T05:56:39.367Z,85.10
2018-01-03T05:59:06.800Z,84.30
2018-01-03T06:01:35.020Z,84.10
2018-01-03T06:04:02.480Z,84.00
2018-01-03T06:06:29.948Z,83.90
2018-01-03T06:08:57.409Z,84.40
2018-01-03T06:11:24.853Z,84.20
2018-01-03T06:13:52.279Z,85.00
2018-01-03T06:16:19.784Z,85.60
2018-01-03T06:18:47.225Z,86.60
2018-01-03T06:21:14.652Z,87.30
2018-01-03T06:23:42.088Z,88.00
2018-01-03T06:26:10.280Z,88.90
2018-01-03T06:28:37.704Z,88.90
2018-01-03T06:31:05.229Z,89.20
2018-01-03T06:33:32.656Z,89.40
2018-01-03T06:36:00.081Z,89.50
2018-01-03T06:38:29.032Z,89.70
2018-01-03T06:40:56.492Z,89.70
2018-01-03T06:43:23.949Z,90.00
2018-01-03T06:45:51.396Z,89.90
2018-01-03T06:48:18.822Z,89.80
2018-01-03T06:50:47.028Z,89.90
2018-01-03T06:53:14.489Z,89.90
2018-01-03T06:55:41.915Z,90.00
2018-01-03T06:58:10.116Z,90.10
2018-01-03T07:00:37.559Z,90.10
2018-01-03T07:03:05.043Z,90.10
2018-01-03T07:05:32.493Z,90.20
2018-01-03T07:07:59.932Z,90.10
2018-01-03T07:10:27.360Z,90.00
2018-01-03T07:12:55.573Z,89.80
2018-01-03T07:15:23.020Z,89.80
2018-01-03T07:17:50.439Z,89.70
2018-01-03T07:20:18.630Z,89.80
2018-01-03T07:22:46.864Z,89.70
2018-01-03T07:25:14.304Z,89.60
2018-01-03T07:27:41.772Z,89.50
2018-01-03T07:30:09.243Z,89.40
2018-01-03T07:32:36.637Z,89.40
2018-01-03T07:35:04.856Z,89.30
2018-01-03T07:37:32.404Z,89.30
2018-01-03T07:39:59.922Z,89.30
2018-01-03T07:42:27.320Z,89.30
2018-01-03T07:44:54.769Z,89.20
2018-01-03T07:47:22.248Z,89.00
2018-01-03T07:49:49.684Z,88.90
2018-01-03T07:52:17.152Z,88.80
2018-01-03T07:54:44.608Z,88.40
2018-01-03T07:57:12.046Z,88.20
2018-01-03T07:59:39.560Z,87.90
2018-01-03T08:02:06.988Z,87.60
2018-01-03T08:04:34.428Z,87.30
2018-01-03T08:07:01.872Z,87.30
2018-01-03T08:09:29.301Z,86.90
2018-01-03T08:11:57.531Z,85.80
2018-01-03T08:14:24.969Z,85.80
2018-01-03T08:16:52.409Z,85.20
2018-01-03T08:19:20.621Z,84.80
2018-01-03T08:21:48.065Z,84.80
2018-01-03T08:24:15.494Z,84.70
2018-01-03T08:26:43.815Z,84.30
2018-01-03T08:29:11.256Z,84.00
2018-01-03T08:31:38.684Z,83.90
2018-01-03T08:34:06.181Z,83.00
2018-01-03T08:36:33.632Z,82.50
2018-01-03T08:39:01.066Z,82.20
2018-01-03T08:41:28.496Z,82.10
2018-01-03T08:43:56.696Z,81.10
2018-01-03T08:46:24.157Z,81.10
2018-01-03T08:48:51.602Z,80.90
2018-01-03T08:51:19.825Z,80.80
2018-01-03T08:53:47.278Z,80.70
2018-01-03T08:56:14.728Z,80.60
2018-01-03T08:58:42.169Z,80.30
2018-01-03T09:01:09.593Z,80.10
2018-01-03T09:03:37.784Z,79.80
2018-01-03T09:06:05.276Z,79.60
2018-01-03T09:08:32.700Z,79.50
2018-01-03T09:11:00.124Z,79.00
2018-01-03T09:13:28.333Z,78.50
2018-01-03T09:15:55.818Z,78.50
2018-01-03T09:18:23.244Z,78.80
2018-01-03T09:20:50.736Z,78.80
2018-01-03T09:23:18.184Z,78.50
2018-01-03T09:25:45.616Z,79.10
2018-01-03T09:28:13.064Z,79.40
2018-01-03T09:30:41.257Z,80.50
2018-01-03T09:33:08.694Z,80.50
2018-01-03T09:35:36.924Z,81.70
2018-01-03T09:38:04.360Z,81.80
2018-01-03T09:40:31.836Z,82.40
2018-01-03T09:42:59.283Z,82.90
2018-01-03T09:45:26.712Z,83.70
2018-01-03T09:47:54.156Z,84.40
2018-01-03T09:50:22.364Z,85.00
2018-01-03T09:52:49.938Z,85.00
2018-01-03T09:55:17.371Z,85.40
2018-01-03T09:57:44.850Z,85.70
2018-01-03T10:00:12.288Z,85.90
2018-01-03T10:02:39.773Z,85.90
2018-01-03T10:05:07.321Z,86.20
2018-01-03T10:07:34.803Z,86.30
2018-01-03T10:10:02.253Z,86.30
2018-01-03T10:12:29.684Z,86.20
2018-01-03T10:14:57.816Z,86.20
2018-01-03T10:17:26.047Z,86.40
2018-01-03T10:19:53.492Z,86.40
2018-01-03T10:22:20.926Z,86.30
2018-01-03T10:24:48.357Z,86.30
2018-01-03T10:27:16.552Z,85.80
2018-01-03T10:29:44.036Z,85.80
2018-01-03T10:32:11.506Z,85.70
2018-01-03T10:34:38.951Z,85.50
2018-01-03T10:37:06.389Z,85.60
2018-01-03T10:39:33.822Z,85.50
2018-01-03T10:42:02.032Z,85.70
2018-01-03T10:44:29.467Z,85.70
2018-01-03T10:46:56.901Z,85.70
2018-01-03T10:49:25.118Z,84.60
2018-01-03T10:51:52.541Z,84.50
2018-01-03T10:54:20.756Z,83.80
2018-01-03T10:56:48.208Z,83.70
2018-01-03T10:59:15.636Z,83.50
2018-01-03T11:01:43.831Z,83.10
2018-01-03T11:04:11.268Z,83.10
2018-01-03T11:06:39.624Z,82.50
2018-01-03T11:09:07.061Z,83.10
2018-01-03T11:11:34.585Z,82.10
2018-01-03T11:14:02.057Z,82.00
2018-01-03T11:16:29.484Z,82.00
2018-01-03T11:18:56.962Z,81.90
2018-01-03T11:21:24.365Z,81.80
2018-01-03T11:23:51.796Z,81.40
2018-01-03T11:26:19.236Z,81.10
2018-01-03T11:28:46.681Z,81.30
2018-01-03T11:31:14.179Z,81.40
2018-01-03T11:33:41.713Z,81.50
2018-01-03T11:36:09.172Z,81.70
2018-01-03T11:38:36.608Z,81.90
2018-01-03T11:41:04.134Z,82.10
2018-01-03T11:43:33.201Z,81.00
2018-01-03T11:46:00.769Z,81.00
2018-01-03T11:48:28.216Z,80.50
2018-01-03T11:50:55.616Z,80.60
2018-01-03T11:53:23.828Z,80.00
2018-01-03T11:55:51.291Z,80.00
2018-01-03T11:58:18.713Z,80.10
2018-01-03T12:00:46.146Z,80.10
2018-01-03T12:03:14.382Z,80.10
2018-01-03T12:05:41.808Z,80.10
2018-01-03T12:08:09.232Z,79.80
2018-01-03T12:10:36.668Z,79.80
2018-01-03T12:13:04.097Z,79.70
2018-01-03T12:15:31.530Z,79.50
2018-01-03T12:17:58.980Z,79.40
2018-01-03T12:20:27.173Z,79.20
2018-01-03T12:22:54.649Z,79.20
2018-01-03T12:25:22.108Z,79.10
2018-01-03T12:27:49.550Z,79.00
2018-01-03T12:30:16.980Z,79.10
2018-01-03T12:32:45.188Z,79.10
2018-01-03T12:35:12.622Z,79.10
2018-01-03T12:37:40.118Z,79.10
2018-01-03T12:40:07.665Z,78.90
2018-01-03T12:42:35.097Z,78.80
2018-01-03T12:45:02.529Z,79.00
2018-01-03T12:47:30.742Z,79.00
2018-01-03T12:49:58.216Z,78.90
2018-01-03T12:52:25.643Z,78.80
2018-01-03T12:54:53.130Z,79.00
2018-01-03T12:57:20.557Z,79.10
2018-01-03T12:59:47.984Z,78.80
2018-01-03T13:02:16.188Z,78.70
2018-01-03T13:04:43.679Z,78.70
2018-01-03T13:07:11.116Z,78.50
2018-01-03T13:09:38.628Z,78.30
2018-01-03T13:12:06.149Z,78.30
2018-01-03T13:14:33.607Z,78.40
2018-01-03T13:17:01.070Z,78.20
2018-01-03T13:19:28.522Z,78.30
2018-01-03T13:21:55.948Z,78.40
2018-01-03T13:24:23.501Z,78.40
2018-01-03T13:26:50.885Z,78.50
2018-01-03T13:29:18.352Z,78.20
2018-01-03T13:31:45.805Z,77.90
2018-01-03T13:34:13.235Z,77.90
2018-01-03T13:36:40.680Z,77.50
2018-01-03T13:39:08.180Z,77.60
2018-01-03T13:41:35.640Z,77.40
2018-01-03T13:44:03.080Z,77.30
2018-01-03T13:46:30.523Z,77.60
2018-01-03T13:48:58.005Z,77.30
2018-01-03T13:51:25.460Z,77.10
2018-01-03T13:53:52.911Z,76.90
2018-01-03T13:56:20.332Z,77.20
2018-01-03T13:58:48.547Z,77.40
2018-01-03T14:01:16.014Z,77.30
2018-01-03T14:03:43.453Z,77.40
2018-01-03T14:06:10.923Z,77.40
2018-01-03T14:08:38.370Z,77.60
2018-01-03T14:11:05.796Z,77.60
2018-01-03T14:13:33.249Z,77.70
2018-01-03T14:16:01.466Z,78.10
2018-01-03T14:18:28.899Z,78.00
2018-01-03T14:20:56.390Z,78.40
2018-01-03T14:23:23.936Z,78.50
2018-01-03T14:25:51.364Z,78.60
2018-01-03T14:28:18.788Z,79.40
2018-01-03T14:30:47.859Z,80.60
2018-01-03T14:33:15.294Z,80.60
2018-01-03T14:35:42.725Z,80.90
2018-01-03T14:38:10.924Z,81.00
2018-01-03T14:40:38.388Z,81.00
2018-01-03T14:43:05.839Z,80.90
2018-01-03T14:45:33.260Z,80.80
2018-01-03T14:48:01.484Z,80.90
2018-01-03T14:50:28.936Z,80.90
2018-01-03T14:52:56.383Z,81.50
2018-01-03T14:55:23.812Z,83.00
2018-01-03T14:57:52.024Z,85.20
2018-01-03T15:00:19.477Z,85.20
2018-01-03T15:02:46.901Z,86.10
2018-01-03T15:05:14.356Z,86.60
2018-01-03T15:07:42.672Z,87.10
2018-01-03T15:10:10.153Z,87.10
2018-01-03T15:12:37.528Z,87.10
2018-01-03T15:15:05.040Z,87.10
2018-01-03T15:17:32.532Z,87.10
2018-01-03T15:20:00.075Z,87.10
2018-01-03T15:22:27.506Z,86.60
2018-01-03T15:24:54.972Z,86.30
2018-01-03T15:27:22.406Z,86.00
2018-01-03T15:29:49.840Z,86.00
2018-01-03T15:32:18.036Z,85.30
2018-01-03T15:34:45.460Z,85.30
2018-01-03T15:37:12.900Z,85.10
2018-01-03T15:39:40.474Z,84.60
2018-01-03T15:42:07.948Z,84.40
2018-01-03T15:44:36.169Z,83.50
2018-01-03T15:47:03.672Z,83.40
2018-01-03T15:49:31.909Z,82.70
2018-01-03T15:51:59.360Z,82.70
2018-01-03T15:54:26.820Z,82.40
2018-01-03T15:56:54.253Z,81.50
2018-01-03T15:59:21.724Z,81.40
2018-01-03T16:01:49.188Z,81.30
2018-01-03T16:04:16.637Z,81.10
2018-01-03T16:06:44.072Z,80.90
2018-01-03T16:09:11.501Z,80.70
2018-01-03T16:11:39.016Z,80.30
2018-01-03T16:14:06.503Z,80.10
2018-01-03T16:16:34.035Z,80.00
2018-01-03T16:19:01.464Z,80.10
2018-01-03T16:21:28.956Z,80.00
2018-01-03T16:23:56.394Z,80.00
2018-01-03T16:26:23.820Z,79.90
2018-01-03T16:28:52.028Z,80.00
2018-01-03T16:31:19.453Z,80.00
2018-01-03T16:33:47.660Z,80.10
2018-01-03T16:36:15.098Z,80.00
2018-01-03T16:38:42.576Z,80.20
2018-01-03T16:41:10.032Z,80.00
2018-01-03T16:43:37.492Z,79.90
2018-01-03T16:46:04.948Z,80.10
2018-01-03T16:48:32.428Z,80.20
2018-01-03T16:50:59.982Z,80.70
2018-01-03T16:53:27.440Z,81.30
2018-01-03T16:55:54.946Z,81.70
2018-01-03T16:58:23.149Z,82.10
2018-01-03T17:00:50.571Z,82.10
2018-01-03T17:03:18.796Z,81.70
2018-01-03T17:05:46.226Z,81.60
2018-01-03T17:08:13.649Z,81.60
2018-01-03T17:10:41.164Z,81.60
2018-01-03T17:13:08.620Z,81.50
2018-01-03T17:15:36.116Z,81.50
2018-01-03T17:18:03.557Z,81.50
2018-01-03T17:20:31.016Z,81.00
2018-01-03T17:22:58.456Z,80.80
2018-01-03T17:25:25.901Z,80.60
2018-01-03T17:27:53.377Z,80.50
2018-01-03T17:30:20.807Z,80.40
2018-01-03T17:32:48.285Z,80.30
2018-01-03T17:35:15.722Z,80.10
2018-01-03T17:37:43.200Z,79.80
2018-01-03T17:40:10.636Z,80.00
2018-01-03T17:42:38.108Z,79.80
2018-01-03T17:45:05.535Z,79.80
2018-01-03T17:47:32.972Z,79.70
2018-01-03T17:50:01.197Z,79.40
2018-01-03T17:52:28.660Z,79.40
2018-01-03T17:54:56.104Z,79.50
2018-01-03T17:57:23.564Z,79.50
2018-01-03T17:59:50.988Z,79.10
2018-01-03T18:02:18.482Z,78.70
2018-01-03T18:04:46.030Z,78.80
2018-01-03T18:07:13.444Z,78.60
2018-01-03T18:09:41.656Z,78.50
2018-01-03T18:12:09.084Z,78.40
2018-01-03T18:14:37.312Z,78.00
2018-01-03T18:17:04.749Z,78.00
2018-01-03T18:19:33.016Z,78.00
2018-01-03T18:22:01.213Z,77.70
2018-01-03T18:24:28.714Z,77.60
2018-01-03T18:26:56.956Z,76.80
2018-01-03T18:29:24.412Z,76.80
2018-01-03T18:31:52.594Z,76.50
2018-01-03T18:34:20.094Z,76.50
2018-01-03T18:36:47.478Z,76.50
2018-01-03T18:39:15.695Z,76.00
2018-01-03T18:41:43.160Z,75.90
2018-01-03T18:44:10.652Z,75.80
2018-01-03T18:46:38.059Z,75.60
2018-01-03T18:49:05.549Z,75.60
2018-01-03T18:51:32.969Z,75.70
2018-01-03T18:54:00.398Z,75.50
2018-01-03T18:56:28.623Z,75.40
2018-01-03T18:58:56.096Z,75.40
2018-01-03T19:01:23.548Z,75.40
2018-01-03T19:03:50.994Z,75.30
2018-01-03T19:06:18.449Z,75.20
2018-01-03T19:08:45.891Z,75.30
2018-01-03T19:11:13.333Z,75.40
2018-01-03T19:13:40.816Z,75.60
2018-01-03T19:16:08.272Z,75.70
2018-01-03T19:18:35.728Z,75.60
2018-01-03T19:21:03.161Z,75.90
2018-01-03T19:23:30.583Z,75.70
2018-01-03T19:25:58.058Z,75.50
2018-01-03T19:28:26.276Z,75.40
2018-01-03T19:30:53.732Z,75.40
2018-01-03T19:33:21.188Z,75.60
2018-01-03T19:35:48.656Z,75.80
2018-01-03T19:38:16.112Z,76.50
2018-01-03T19:40:43.564Z,76.90
2018-01-03T19:43:10.999Z,77.30
2018-01-03T19:45:38.486Z,77.40
2018-01-03T19:48:05.925Z,77.50
2018-01-03T19:50:33.358Z,77.40
2018-01-03T19:53:00.849Z,77.30
2018-01-03T19:55:28.296Z,77.20
2018-01-03T19:57:55.712Z,77.70
2018-01-03T20:00:23.928Z,78.30
2018-01-03T20:02:51.381Z,78.30
2018-01-03T20:05:18.856Z,78.40
2018-01-03T20:07:46.281Z,78.50
2018-01-03T20:10:13.720Z,78.50
2018-01-03T20:12:41.939Z,78.80
2018-01-03T20:15:09.400Z,78.80
2018-01-03T20:17:36.841Z,78.90
2018-01-03T20:20:04.268Z,79.00
2018-01-03T20:22:32.492Z,78.90
2018-01-03T20:25:00.043Z,78.80
2018-01-03T20:27:27.469Z,78.80
2018-01-03T20:29:54.904Z,79.00
2018-01-03T20:32:23.128Z,80.20
2018-01-03T20:34:50.589Z,80.20
2018-01-03T20:37:18.040Z,80.60
2018-01-03T20:39:45.485Z,81.50
2018-01-03T20:42:12.980Z,80.70
2018-01-03T20:44:40.423Z,80.30
2018-01-03T20:47:07.876Z,80.40
2018-01-03T20:49:35.308Z,80.60
2018-01-03T20:52:02.734Z,80.50
2018-01-03T20:54:30.935Z,80.10
2018-01-03T20:56:58.365Z,80.10
2018-01-03T20:59:26.556Z,80.40
2018-01-03T21:01:54.077Z,79.70
2018-01-03T21:04:21.608Z,79.30
2018-01-03T21:06:49.065Z,78.80
2018-01-03T21:09:16.524Z,78.70
2018-01-03T21:11:43.985Z,78.50
2018-01-03T21:14:11.426Z,78.40
2018-01-03T21:16:38.901Z,78.50
2018-01-03T21:19:06.329Z,78.50
2018-01-03T21:21:33.765Z,78.50
2018-01-03T21:24:01.961Z,78.20
2018-01-03T21:26:29.384Z,78.20
2018-01-03T21:28:57.603Z,77.90
2018-01-03T21:31:25.088Z,77.80
2018-01-03T21:33:52.524Z,77.80
2018-01-03T21:36:19.966Z,77.70
2018-01-03T21:38:47.405Z,77.60
2018-01-03T21:41:14.839Z,77.60
2018-01-03T21:43:43.764Z,77.60
2018-01-03T21:46:11.277Z,77.50
2018-01-03T21:48:38.824Z,77.50
2018-01-03T21:51:06.260Z,77.50
2018-01-03T21:53:33.708Z,77.70
2018-01-03T21:56:01.128Z,77.60
2018-01-03T21:58:29.332Z,77.40
2018-01-03T22:00:56.780Z,77.40
2018-01-03T22:03:24.269Z,77.50
2018-01-03T22:05:51.723Z,77.60
2018-01-03T22:08:19.172Z,77.70
2018-01-03T22:10:46.644Z,77.80
2018-01-03T22:13:14.112Z,77.90
2018-01-03T22:15:41.652Z,77.80
2018-01-03T22:18:09.116Z,77.90
2018-01-03T22:20:36.568Z,78.00
2018-01-03T22:23:04.021Z,78.10
2018-01-03T22:25:31.466Z,78.20
2018-01-03T22:27:58.900Z,78.30
2018-01-03T22:30:27.101Z,78.50
2018-01-03T22:32:54.576Z,78.50
2018-01-03T22:35:22.056Z,78.50
2018-01-03T22:37:49.504Z,79.30
2018-01-03T22:40:17.055Z,78.70
2018-01-03T22:42:44.475Z,78.90
2018-01-03T22:45:11.963Z,79.00
2018-01-03T22:47:39.393Z,79.00
2018-01-03T22:50:06.816Z,79.20
2018-01-03T22:52:35.051Z,79.70
2018-01-03T22:55:02.493Z,79.70
2018-01-03T22:57:29.929Z,80.20
2018-01-03T22:59:57.417Z,80.90
2018-01-03T23:02:24.856Z,81.30
2018-01-03T23:04:52.332Z,81.80
2018-01-03T23:07:19.778Z,82.20
2018-01-03T23:09:47.246Z,82.70
2018-01-03T23:12:14.725Z,83.20
2018-01-03T23:14:42.169Z,83.50
2018-01-03T23:17:09.625Z,84.10
2018-01-03T23:19:37.081Z,84.50
2018-01-03T23:22:04.645Z,84.90
2018-01-03T23:24:32.099Z,85.20
2018-01-03T23:26:59.533Z,85.50
2018-01-03T23:29:27.029Z,85.70
2018-01-03T23:31:54.457Z,86.00
2018-01-03T23:34:22.022Z,86.30
2018-01-03T23:36:49.475Z,86.40
2018-01-03T23:39:16.940Z,86.30
2018-01-03T23:41:44.393Z,86.50
2018-01-03T23:44:11.840Z,86.60
2018-01-03T23:46:39.296Z,86.70
2018-01-03T23:49:06.713Z,87.40
2018-01-03T23:51:34.929Z,86.60
2018-01-03T23:54:02.410Z,86.50
2018-01-03T23:56:29.860Z,86.40
2018-01-03T23:58:57.297Z,86.10
